Terminal Aerodrome Forecast
Issued by NWS Cleveland, OH

Home | Current Version | Previous Version | Text Only | Print | Product List | Glossary Off
Versions: 1 2 3 4 5 6 7 8 9 10 11 12 13 14 15 16 17 18 19

000
FTUS41 KCLE 260900 AAA
TAFCLE
TAF AMD
KCLE 260900Z 2609/2712 18008KT P6SM BKN150
     FM261300 20008KT P6SM BKN035
     FM261800 19012G20KT P6SM BKN050
     FM270300 19015G22KT P6SM VCSH BKN040 OVC100
     FM270800 20012KT 4SM BR SCT010 BKN100=

USA.gov is the U.S. government's official web portal to all federal, state and local government web resources and services.